sensor_id;sensor_type;location;lat;lon;timestamp;pressure;altitude;pressure_sealevel;temperature;humidity
69318;BME280;56457;52.190;4.440;2023-05-12T00:00:24;101965.38;;;12.27;100.00
69318;BME280;56457;52.190;4.440;2023-05-12T00:01:24;101963.59;;;12.27;100.00
69318;BME280;56457;52.190;4.440;2023-05-12T00:02:25;101964.47;;;12.23;100.00
69318;BME280;56457;52.190;4.440;2023-05-12T00:03:25;101962.72;;;12.22;100.00
69318;BME280;56457;52.190;4.440;2023-05-12T00:04:26;101964.47;;;12.22;100.00
69318;BME280;56457;52.190;4.440;2023-05-12T00:05:26;101960.97;;;12.18;100.00
69318;BME280;56457;52.190;4.440;2023-05-12T00:06:28;101961.81;;;12.17;100.00
69318;BME280;56457;52.190;4.440;2023-05-12T00:07:28;101962.72;;;12.18;100.00
69318;BME280;56457;52.190;4.440;2023-05-12T00:08:29;101967.06;;;12.17;100.00
69318;BME280;56457;52.190;4.440;2023-05-12T00:09:30;101966.22;;;12.23;100.00
69318;BME280;56457;52.190;4.440;2023-05-12T00:10:30;101960.09;;;12.28;100.00
69318;BME280;56457;52.190;4.440;2023-05-12T00:11:31;101961.84;;;12.23;100.00
69318;BME280;56457;52.190;4.440;2023-05-12T00:12:31;101960.97;;;12.18;100.00
69318;BME280;56457;52.190;4.440;2023-05-12T00:13:31;101960.97;;;12.20;100.00
69318;BME280;56457;52.190;4.440;2023-05-12T00:14:32;101966.22;;;12.20;100.00
69318;BME280;56457;52.190;4.440;2023-05-12T00:15:32;101958.31;;;12.15;100.00
69318;BME280;56457;52.190;4.440;2023-05-12T00:16:32;101958.31;;;12.12;100.00
69318;BME280;56457;52.190;4.440;2023-05-12T00:17:35;101957.44;;;12.16;100.00
69318;BME280;56457;52.190;4.440;2023-05-12T00:18:37;101960.06;;;12.13;100.00
69318;BME280;56457;52.190;4.440;2023-05-12T00:19:40;101962.66;;;12.10;100.00
69318;BME280;56457;52.190;4.440;2023-05-12T00:20:43;101961.81;;;12.14;100.00
69318;BME280;56457;52.190;4.440;2023-05-12T00:21:45;101963.56;;;12.12;100.00
69318;BME280;56457;52.190;4.440;2023-05-12T00:22:48;101959.16;;;12.06;100.00
69318;BME280;56457;52.190;4.440;2023-05-12T00:23:49;101962.63;;;12.04;100.00
69318;BME280;56457;52.190;4.440;2023-05-12T00:24:50;101961.75;;;12.02;100.00
69318;BME280;56457;52.190;4.440;2023-05-12T00:25:50;101961.78;;;12.05;100.00
69318;BME280;56457;52.190;4.440;2023-05-12T00:26:50;101960.88;;;12.00;100.00
69318;BME280;56457;52.190;4.440;2023-05-12T00:27:51;101966.16;;;12.00;100.00
69318;BME280;56457;52.190;4.440;2023-05-12T00:28:51;101959.13;;;12.00;100.00
69318;BME280;56457;52.190;4.440;2023-05-12T00:29:51;101966.16;;;12.03;100.00
69318;BME280;56457;52.190;4.440;2023-05-12T00:30:52;101959.13;;;12.00;100.00
69318;BME280;56457;52.190;4.440;2023-05-12T00:31:53;101967.91;;;12.04;100.00
69318;BME280;56457;52.190;4.440;2023-05-12T00:32:54;101963.53;;;12.00;100.00
69318;BME280;56457;52.190;4.440;2023-05-12T00:33:54;101966.16;;;12.00;100.00
69318;BME280;56457;52.190;4.440;2023-05-12T00:34:54;101950.38;;;12.03;100.00
69318;BME280;56457;52.190;4.440;2023-05-12T00:35:56;101959.16;;;12.08;100.00
69318;BME280;56457;52.190;4.440;2023-05-12T00:36:56;101957.41;;;12.08;100.00
69318;BME280;56457;52.190;4.440;2023-05-12T00:37:56;101955.63;;;12.04;100.00
69318;BME280;56457;52.190;4.440;2023-05-12T00:38:57;101956.50;;;12.00;100.00
69318;BME280;56457;52.190;4.440;2023-05-12T00:39:57;101953.00;;;12.00;100.00
69318;BME280;56457;52.190;4.440;2023-05-12T00:40:57;101952.09;;;11.98;100.00
69318;BME280;56457;52.190;4.440;2023-05-12T00:41:58;101956.47;;;11.96;100.00
69318;BME280;56457;52.190;4.440;2023-05-12T00:42:58;101958.22;;;11.95;100.00
69318;BME280;56457;52.190;4.440;2023-05-12T00:43:59;101957.38;;;12.01;100.00
69318;BME280;56457;52.190;4.440;2023-05-12T00:44:59;101954.72;;;11.98;100.00
69318;BME280;56457;52.190;4.440;2023-05-12T00:45:59;101955.59;;;11.98;100.00
69318;BME280;56457;52.190;4.440;2023-05-12T00:47:01;101950.34;;;11.98;100.00
69318;BME280;56457;52.190;4.440;2023-05-12T00:48:02;101961.78;;;11.99;100.00
69318;BME280;56457;52.190;4.440;2023-05-12T00:49:03;101956.50;;;12.02;100.00
69318;BME280;56457;52.190;4.440;2023-05-12T00:50:04;101955.63;;;12.00;100.00
69318;BME280;56457;52.190;4.440;2023-05-12T00:51:04;101954.75;;;12.01;100.00
69318;BME280;56457;52.190;4.440;2023-05-12T00:52:05;101952.13;;;12.01;100.00
69318;BME280;56457;52.190;4.440;2023-05-12T00:53:05;101956.50;;;12.02;100.00
69318;BME280;56457;52.190;4.440;2023-05-12T00:54:06;101950.38;;;12.01;100.00
69318;BME280;56457;52.190;4.440;2023-05-12T00:55:07;101959.16;;;12.05;100.00
69318;BME280;56457;52.190;4.440;2023-05-12T00:56:08;101954.75;;;12.02;100.00
69318;BME280;56457;52.190;4.440;2023-05-12T00:57:09;101953.84;;;11.97;100.00
69318;BME280;56457;52.190;4.440;2023-05-12T00:58:09;101960.00;;;11.96;100.00
69318;BME280;56457;52.190;4.440;2023-05-12T00:59:09;101959.09;;;11.91;100.00
69318;BME280;56457;52.190;4.440;2023-05-12T01:00:10;101959.13;;;11.93;100.00
69318;BME280;56457;52.190;4.440;2023-05-12T01:01:10;101964.38;;;11.93;100.00
69318;BME280;56457;52.190;4.440;2023-05-12T01:02:11;101958.22;;;11.94;100.00
69318;BME280;56457;52.190;4.440;2023-05-12T01:03:11;101955.59;;;11.95;100.00
69318;BME280;56457;52.190;4.440;2023-05-12T01:04:11;101953.84;;;11.97;100.00
69318;BME280;56457;52.190;4.440;2023-05-12T01:05:12;101953.84;;;11.96;100.00
69318;BME280;56457;52.190;4.440;2023-05-12T01:06:17;101954.72;;;11.95;100.00
69318;BME280;56457;52.190;4.440;2023-05-12T01:07:21;101958.22;;;11.98;100.00
69318;BME280;56457;52.190;4.440;2023-05-12T01:08:21;101956.47;;;11.96;100.00
69318;BME280;56457;52.190;4.440;2023-05-12T01:09:23;101960.00;;;11.95;100.00
69318;BME280;56457;52.190;4.440;2023-05-12T01:10:24;101961.78;;;12.00;100.00
69318;BME280;56457;52.190;4.440;2023-05-12T01:11:24;101954.75;;;11.99;100.00
69318;BME280;56457;52.190;4.440;2023-05-12T01:12:25;101952.97;;;11.97;100.00
69318;BME280;56457;52.190;4.440;2023-05-12T01:13:26;101952.97;;;11.98;100.00
69318;BME280;56457;52.190;4.440;2023-05-12T01:14:27;101953.00;;;12.01;100.00
69318;BME280;56457;52.190;4.440;2023-05-12T01:15:27;101953.00;;;12.00;100.00
69318;BME280;56457;52.190;4.440;2023-05-12T01:16:30;101941.59;;;12.04;100.00
69318;BME280;56457;52.190;4.440;2023-05-12T01:17:31;101954.75;;;12.01;100.00
69318;BME280;56457;52.190;4.440;2023-05-12T01:18:33;101954.75;;;11.99;100.00
69318;BME280;56457;52.190;4.440;2023-05-12T01:20:35;101953.00;;;12.01;100.00
69318;BME280;56457;52.190;4.440;2023-05-12T01:21:36;101953.91;;;12.05;100.00
69318;BME280;56457;52.190;4.440;2023-05-12T01:22:36;101953.00;;;12.04;100.00
69318;BME280;56457;52.190;4.440;2023-05-12T01:23:39;101960.84;;;11.98;100.00
69318;BME280;56457;52.190;4.440;2023-05-12T01:24:51;101954.72;;;11.96;100.00
69318;BME280;56457;52.190;4.440;2023-05-12T01:25:53;101957.38;;;11.99;100.00
69318;BME280;56457;52.190;4.440;2023-05-12T01:26:54;101951.22;;;11.97;100.00
69318;BME280;56457;52.190;4.440;2023-05-12T01:27:54;101962.63;;;11.93;100.00
69318;BME280;56457;52.190;4.440;2023-05-12T01:28:54;101960.84;;;11.92;100.00
69318;BME280;56457;52.190;4.440;2023-05-12T01:29:57;101957.31;;;11.90;100.00
69318;BME280;56457;52.190;4.440;2023-05-12T01:30:58;101966.09;;;11.91;100.00
69318;BME280;56457;52.190;4.440;2023-05-12T01:31:58;101952.97;;;11.94;100.00
69318;BME280;56457;52.190;4.440;2023-05-12T01:32:58;101953.81;;;11.90;100.00
69318;BME280;56457;52.190;4.440;2023-05-12T01:33:59;101960.84;;;11.92;100.00
69318;BME280;56457;52.190;4.440;2023-05-12T01:34:59;101957.38;;;11.99;100.00
69318;BME280;56457;52.190;4.440;2023-05-12T01:36:00;101957.34;;;11.95;100.00
69318;BME280;56457;52.190;4.440;2023-05-12T01:37:00;101952.97;;;11.95;100.00
69318;BME280;56457;52.190;4.440;2023-05-12T01:38:00;101960.00;;;12.01;100.00
69318;BME280;56457;52.190;4.440;2023-05-12T01:39:00;101964.41;;;12.02;100.00
69318;BME280;56457;52.190;4.440;2023-05-12T01:40:01;101962.63;;;12.04;100.00
69318;BME280;56457;52.190;4.440;2023-05-12T01:41:01;101953.91;;;12.05;100.00
69318;BME280;56457;52.190;4.440;2023-05-12T01:42:02;101953.00;;;12.04;100.00
69318;BME280;56457;52.190;4.440;2023-05-12T01:43:02;101960.00;;;11.99;100.00
69318;BME280;56457;52.190;4.440;2023-05-12T01:44:03;101959.13;;;11.94;100.00
69318;BME280;56457;52.190;4.440;2023-05-12T01:45:03;101963.47;;;11.89;100.00
69318;BME280;56457;52.190;4.440;2023-05-12T01:46:03;101960.88;;;11.94;100.00
69318;BME280;56457;52.190;4.440;2023-05-12T01:47:04;101960.00;;;11.93;100.00
69318;BME280;56457;52.190;4.440;2023-05-12T01:48:04;101957.34;;;11.96;100.00
69318;BME280;56457;52.190;4.440;2023-05-12T01:49:04;101957.34;;;11.98;100.00
69318;BME280;56457;52.190;4.440;2023-05-12T01:50:05;101954.72;;;11.96;100.00
69318;BME280;56457;52.190;4.440;2023-05-12T01:51:06;101962.59;;;11.92;100.00
69318;BME280;56457;52.190;4.440;2023-05-12T01:52:07;101959.97;;;11.90;100.00
69318;BME280;56457;52.190;4.440;2023-05-12T01:53:07;101954.72;;;11.93;100.00
69318;BME280;56457;52.190;4.440;2023-05-12T01:54:11;101960.00;;;11.93;100.00
69318;BME280;56457;52.190;4.440;2023-05-12T01:55:11;101957.34;;;11.96;100.00
69318;BME280;56457;52.190;4.440;2023-05-12T01:56:12;101956.47;;;11.97;100.00
69318;BME280;56457;52.190;4.440;2023-05-12T01:57:12;101958.22;;;11.98;100.00
69318;BME280;56457;52.190;4.440;2023-05-12T01:58:12;101958.22;;;11.94;100.00
69318;BME280;56457;52.190;4.440;2023-05-12T01:59:13;101952.97;;;11.94;100.00
69318;BME280;56457;52.190;4.440;2023-05-12T02:00:14;101945.97;;;11.94;100.00
69318;BME280;56457;52.190;4.440;2023-05-12T02:01:14;101953.84;;;11.96;100.00
69318;BME280;56457;52.190;4.440;2023-05-12T02:02:14;101959.09;;;11.96;100.00
69318;BME280;56457;52.190;4.440;2023-05-12T02:03:15;101959.09;;;11.90;100.00
69318;BME280;56457;52.190;4.440;2023-05-12T02:04:15;101950.34;;;11.97;100.00
69318;BME280;56457;52.190;4.440;2023-05-12T02:05:16;101960.00;;;11.96;100.00
69318;BME280;56457;52.190;4.440;2023-05-12T02:06:16;101960.00;;;11.95;100.00
69318;BME280;56457;52.190;4.440;2023-05-12T02:07:16;101947.69;;;11.91;100.00
69318;BME280;56457;52.190;4.440;2023-05-12T02:08:17;101952.06;;;11.89;100.00
69318;BME280;56457;52.190;4.440;2023-05-12T02:09:17;101952.94;;;11.88;100.00
69318;BME280;56457;52.190;4.440;2023-05-12T02:10:17;101952.06;;;11.92;100.00
69318;BME280;56457;52.190;4.440;2023-05-12T02:11:18;101954.72;;;11.93;100.00
69318;BME280;56457;52.190;4.440;2023-05-12T02:12:19;101945.97;;;11.96;100.00
69318;BME280;56457;52.190;4.440;2023-05-12T02:13:19;101953.00;;;12.00;100.00
69318;BME280;56457;52.190;4.440;2023-05-12T02:14:20;101946.00;;;12.00;100.00
69318;BME280;56457;52.190;4.440;2023-05-12T02:15:20;101946.88;;;12.01;100.00
69318;BME280;56457;52.190;4.440;2023-05-12T02:16:20;101947.72;;;11.97;100.00
69318;BME280;56457;52.190;4.440;2023-05-12T02:17:21;101948.63;;;12.02;100.00
69318;BME280;56457;52.190;4.440;2023-05-12T02:18:23;101946.84;;;11.98;100.00
69318;BME280;56457;52.190;4.440;2023-05-12T02:19:24;101938.06;;;11.97;100.00
69318;BME280;56457;52.190;4.440;2023-05-12T02:20:24;101941.56;;;11.96;100.00
69318;BME280;56457;52.190;4.440;2023-05-12T02:21:24;101945.09;;;11.94;100.00
69318;BME280;56457;52.190;4.440;2023-05-12T02:22:25;101949.44;;;11.92;100.00
69318;BME280;56457;52.190;4.440;2023-05-12T02:23:25;101943.31;;;11.90;100.00
69318;BME280;56457;52.190;4.440;2023-05-12T02:24:26;101950.31;;;11.91;100.00
69318;BME280;56457;52.190;4.440;2023-05-12T02:25:26;101945.97;;;11.94;100.00
69318;BME280;56457;52.190;4.440;2023-05-12T02:26:26;101945.97;;;11.94;100.00
69318;BME280;56457;52.190;4.440;2023-05-12T02:27:27;101947.72;;;11.95;100.00
69318;BME280;56457;52.190;4.440;2023-05-12T02:28:27;101944.22;;;11.95;100.00
69318;BME280;56457;52.190;4.440;2023-05-12T02:29:27;101948.56;;;11.91;100.00
69318;BME280;56457;52.190;4.440;2023-05-12T02:30:28;101942.41;;;11.86;100.00
69318;BME280;56457;52.190;4.440;2023-05-12T02:31:28;101942.44;;;11.88;100.00
69318;BME280;56457;52.190;4.440;2023-05-12T02:32:28;101940.66;;;11.91;100.00
69318;BME280;56457;52.190;4.440;2023-05-12T02:33:29;101935.41;;;11.88;100.00
69318;BME280;56457;52.190;4.440;2023-05-12T02:34:29;101938.03;;;11.82;100.00
69318;BME280;56457;52.190;4.440;2023-05-12T02:35:30;101934.50;;;11.84;100.00
69318;BME280;56457;52.190;4.440;2023-05-12T02:36:30;101940.63;;;11.80;100.00
69318;BME280;56457;52.190;4.440;2023-05-12T02:37:31;101933.63;;;11.84;100.00
69318;BME280;56457;52.190;4.440;2023-05-12T02:38:31;101931.88;;;11.84;100.00
69318;BME280;56457;52.190;4.440;2023-05-12T02:39:32;101933.63;;;11.84;100.00
69318;BME280;56457;52.190;4.440;2023-05-12T02:40:32;101933.56;;;11.78;100.00
69318;BME280;56457;52.190;4.440;2023-05-12T02:41:32;101936.19;;;11.79;100.00
69318;BME280;56457;52.190;4.440;2023-05-12T02:42:32;101934.50;;;11.81;100.00
69318;BME280;56457;52.190;4.440;2023-05-12T02:43:34;101938.00;;;11.80;100.00
69318;BME280;56457;52.190;4.440;2023-05-12T02:44:34;101926.63;;;11.83;100.00
69318;BME280;56457;52.190;4.440;2023-05-12T02:45:35;101934.44;;;11.80;100.00
69318;BME280;56457;52.190;4.440;2023-05-12T02:46:35;101926.63;;;11.81;100.00
69318;BME280;56457;52.190;4.440;2023-05-12T02:47:36;101930.09;;;11.80;100.00
69318;BME280;56457;52.190;4.440;2023-05-12T02:48:36;101932.75;;;11.82;100.00
69318;BME280;56457;52.190;4.440;2023-05-12T02:49:36;101923.06;;;11.76;100.00
69318;BME280;56457;52.190;4.440;2023-05-12T02:50:37;101930.94;;;11.75;100.00
69318;BME280;56457;52.190;4.440;2023-05-12T02:51:37;101932.66;;;11.70;100.00
69318;BME280;56457;52.190;4.440;2023-05-12T02:52:38;101931.81;;;11.75;100.00
69318;BME280;56457;52.190;4.440;2023-05-12T02:53:38;101930.91;;;11.70;100.00
69318;BME280;56457;52.190;4.440;2023-05-12T02:54:38;101936.13;;;11.66;100.00
69318;BME280;56457;52.190;4.440;2023-05-12T02:55:38;101933.50;;;11.66;100.00
69318;BME280;56457;52.190;4.440;2023-05-12T02:56:39;101932.63;;;11.65;100.00
69318;BME280;56457;52.190;4.440;2023-05-12T02:57:39;101938.75;;;11.61;100.00
69318;BME280;56457;52.190;4.440;2023-05-12T02:58:39;101934.38;;;11.66;100.00
69318;BME280;56457;52.190;4.440;2023-05-12T02:59:40;101937.06;;;11.68;100.00
69318;BME280;56457;52.190;4.440;2023-05-12T03:00:41;101941.41;;;11.64;100.00
69318;BME280;56457;52.190;4.440;2023-05-12T03:01:41;101940.56;;;11.71;100.00
69318;BME280;56457;52.190;4.440;2023-05-12T03:02:43;101941.41;;;11.67;100.00
69318;BME280;56457;52.190;4.440;2023-05-12T03:03:43;101939.69;;;11.71;100.00
69318;BME280;56457;52.190;4.440;2023-05-12T03:04:43;101936.13;;;11.67;100.00
69318;BME280;56457;52.190;4.440;2023-05-12T03:05:44;101931.75;;;11.65;100.00
69318;BME280;56457;52.190;4.440;2023-05-12T03:06:44;101938.75;;;11.59;100.00
69318;BME280;56457;52.190;4.440;2023-05-12T03:07:46;101930.84;;;11.59;100.00
69318;BME280;56457;52.190;4.440;2023-05-12T03:08:47;101930.81;;;11.50;100.00
69318;BME280;56457;52.190;4.440;2023-05-12T03:09:47;101937.78;;;11.48;100.00
69318;BME280;56457;52.190;4.440;2023-05-12T03:10:48;101925.53;;;11.49;100.00
69318;BME280;56457;52.190;4.440;2023-05-12T03:11:48;101934.28;;;11.48;100.00
69318;BME280;56457;52.190;4.440;2023-05-12T03:12:48;101937.78;;;11.45;100.00
69318;BME280;56457;52.190;4.440;2023-05-12T03:13:49;101929.91;;;11.47;100.00
69318;BME280;56457;52.190;4.440;2023-05-12T03:14:49;101933.41;;;11.46;100.00
69318;BME280;56457;52.190;4.440;2023-05-12T03:15:50;101926.38;;;11.40;100.00
69318;BME280;56457;52.190;4.440;2023-05-12T03:16:50;101936.00;;;11.40;100.00
69318;BME280;56457;52.190;4.440;2023-05-12T03:17:50;101930.75;;;11.38;100.00
69318;BME280;56457;52.190;4.440;2023-05-12T03:18:51;101926.38;;;11.40;100.00
69318;BME280;56457;52.190;4.440;2023-05-12T03:19:51;101928.06;;;11.35;100.00
69318;BME280;56457;52.190;4.440;2023-05-12T03:20:51;101931.63;;;11.37;100.00
69318;BME280;56457;52.190;4.440;2023-05-12T03:21:52;101930.72;;;11.33;100.00
69318;BME280;56457;52.190;4.440;2023-05-12T03:22:52;101927.19;;;11.31;100.00
69318;BME280;56457;52.190;4.440;2023-05-12T03:23:53;101932.44;;;11.31;100.00
69318;BME280;56457;52.190;4.440;2023-05-12T03:24:53;101926.31;;;11.36;100.00
69318;BME280;56457;52.190;4.440;2023-05-12T03:25:53;101928.97;;;11.36;100.00
69318;BME280;56457;52.190;4.440;2023-05-12T03:26:54;101926.38;;;11.37;100.00
69318;BME280;56457;52.190;4.440;2023-05-12T03:27:54;101925.50;;;11.38;100.00
69318;BME280;56457;52.190;4.440;2023-05-12T03:28:55;101926.38;;;11.39;100.00
69318;BME280;56457;52.190;4.440;2023-05-12T03:29:55;101922.91;;;11.44;100.00
69318;BME280;56457;52.190;4.440;2023-05-12T03:30:55;101928.16;;;11.49;100.00
69318;BME280;56457;52.190;4.440;2023-05-12T03:31:55;101921.16;;;11.43;100.00
69318;BME280;56457;52.190;4.440;2023-05-12T03:32:56;101914.94;;;11.35;100.00
69318;BME280;56457;52.190;4.440;2023-05-12T03:33:56;101923.69;;;11.34;100.00
69318;BME280;56457;52.190;4.440;2023-05-12T03:34:56;101926.28;;;11.28;100.00
69318;BME280;56457;52.190;4.440;2023-05-12T03:35:57;101921.03;;;11.25;100.00
69318;BME280;56457;52.190;4.440;2023-05-12T03:36:57;101919.31;;;11.31;100.00
69318;BME280;56457;52.190;4.440;2023-05-12T03:37:57;101920.16;;;11.27;100.00
69318;BME280;56457;52.190;4.440;2023-05-12T03:38:58;101921.00;;;11.22;100.00
69318;BME280;56457;52.190;4.440;2023-05-12T03:39:58;101921.06;;;11.32;100.00
69318;BME280;56457;52.190;4.440;2023-05-12T03:41:02;101920.19;;;11.35;100.00
69318;BME280;56457;52.190;4.440;2023-05-12T03:42:02;101919.31;;;11.36;100.00
69318;BME280;56457;52.190;4.440;2023-05-12T03:43:02;101915.78;;;11.29;100.00
69318;BME280;56457;52.190;4.440;2023-05-12T03:44:03;101928.03;;;11.26;100.00
69318;BME280;56457;52.190;4.440;2023-05-12T03:45:05;101922.78;;;11.24;100.00
69318;BME280;56457;52.190;4.440;2023-05-12T03:46:06;101917.47;;;11.18;100.00
69318;BME280;56457;52.190;4.440;2023-05-12T03:47:06;101926.25;;;11.22;100.00
69318;BME280;56457;52.190;4.440;2023-05-12T03:48:06;101934.13;;;11.20;100.00
69318;BME280;56457;52.190;4.440;2023-05-12T03:49:07;101929.78;;;11.25;100.00
69318;BME280;56457;52.190;4.440;2023-05-12T03:50:07;101922.69;;;11.17;100.00
69318;BME280;56457;52.190;4.440;2023-05-12T03:51:07;101924.50;;;11.19;100.00
69318;BME280;56457;52.190;4.440;2023-05-12T03:52:08;101923.63;;;11.23;100.00
69318;BME280;56457;52.190;4.440;2023-05-12T03:53:08;101925.41;;;11.27;100.00
69318;BME280;56457;52.190;4.440;2023-05-12T03:54:08;101928.88;;;11.22;100.00
69318;BME280;56457;52.190;4.440;2023-05-12T03:55:09;101921.00;;;11.19;100.00
69318;BME280;56457;52.190;4.440;2023-05-12T03:56:09;101929.78;;;11.27;100.00
69318;BME280;56457;52.190;4.440;2023-05-12T03:57:10;101921.88;;;11.22;100.00
69318;BME280;56457;52.190;4.440;2023-05-12T03:58:11;101923.63;;;11.20;100.00
69318;BME280;56457;52.190;4.440;2023-05-12T03:59:11;101921.88;;;11.21;100.00
69318;BME280;56457;52.190;4.440;2023-05-12T04:00:12;101925.38;;;11.18;100.00
69318;BME280;56457;52.190;4.440;2023-05-12T04:01:12;101926.19;;;11.16;100.00
69318;BME280;56457;52.190;4.440;2023-05-12T04:02:13;101924.44;;;11.16;100.00
69318;BME280;56457;52.190;4.440;2023-05-12T04:03:13;101918.31;;;11.13;100.00
69318;BME280;56457;52.190;4.440;2023-05-12T04:04:14;101926.16;;;11.08;100.00
69318;BME280;56457;52.190;4.440;2023-05-12T04:05:14;101916.53;;;11.09;100.00
69318;BME280;56457;52.190;4.440;2023-05-12T04:06:15;101921.84;;;11.18;100.00
69318;BME280;56457;52.190;4.440;2023-05-12T04:07:15;101919.19;;;11.18;100.00
69318;BME280;56457;52.190;4.440;2023-05-12T04:08:15;101923.63;;;11.19;100.00
69318;BME280;56457;52.190;4.440;2023-05-12T04:09:16;101921.00;;;11.22;100.00
69318;BME280;56457;52.190;4.440;2023-05-12T04:10:16;101920.16;;;11.24;100.00
69318;BME280;56457;52.190;4.440;2023-05-12T04:11:16;101927.13;;;11.22;100.00
69318;BME280;56457;52.190;4.440;2023-05-12T04:12:17;101917.53;;;11.29;100.00
69318;BME280;56457;52.190;4.440;2023-05-12T04:13:17;101923.66;;;11.26;100.00
69318;BME280;56457;52.190;4.440;2023-05-12T04:14:17;101919.28;;;11.27;100.00
69318;BME280;56457;52.190;4.440;2023-05-12T04:15:18;101925.41;;;11.24;100.00
69318;BME280;56457;52.190;4.440;2023-05-12T04:16:18;101920.13;;;11.18;100.00
69318;BME280;56457;52.190;4.440;2023-05-12T04:17:18;101923.63;;;11.22;100.00
69318;BME280;56457;52.190;4.440;2023-05-12T04:18:19;101938.59;;;11.33;100.00
69318;BME280;56457;52.190;4.440;2023-05-12T04:19:19;101923.69;;;11.32;100.00
69318;BME280;56457;52.190;4.440;2023-05-12T04:20:19;101921.91;;;11.30;100.00
69318;BME280;56457;52.190;4.440;2023-05-12T04:21:20;101913.19;;;11.32;100.00
69318;BME280;56457;52.190;4.440;2023-05-12T04:22:20;101922.81;;;11.32;100.00
69318;BME280;56457;52.190;4.440;2023-05-12T04:23:20;101919.31;;;11.31;100.00
69318;BME280;56457;52.190;4.440;2023-05-12T04:24:21;101919.28;;;11.28;100.00
69318;BME280;56457;52.190;4.440;2023-05-12T04:25:24;101922.78;;;11.26;100.00
69318;BME280;56457;52.190;4.440;2023-05-12T04:26:24;101919.28;;;11.25;100.00
69318;BME280;56457;52.190;4.440;2023-05-12T04:27:26;101929.78;;;11.27;100.00
69318;BME280;56457;52.190;4.440;2023-05-12T04:28:26;101928.91;;;11.26;100.00
69318;BME280;56457;52.190;4.440;2023-05-12T04:29:26;101920.13;;;11.21;100.00
69318;BME280;56457;52.190;4.440;2023-05-12T04:30:26;101923.66;;;11.26;100.00
69318;BME280;56457;52.190;4.440;2023-05-12T04:31:27;101921.94;;;11.31;100.00
69318;BME280;56457;52.190;4.440;2023-05-12T04:32:27;101916.69;;;11.36;100.00
69318;BME280;56457;52.190;4.440;2023-05-12T04:33:27;101913.22;;;11.42;100.00
69318;BME280;56457;52.190;4.440;2023-05-12T04:34:28;101920.22;;;11.38;100.00
69318;BME280;56457;52.190;4.440;2023-05-12T04:35:28;101926.31;;;11.34;100.00
69318;BME280;56457;52.190;4.440;2023-05-12T04:36:28;101923.69;;;11.34;100.00
69318;BME280;56457;52.190;4.440;2023-05-12T04:37:29;101925.44;;;11.30;100.00
69318;BME280;56457;52.190;4.440;2023-05-12T04:38:29;101935.97;;;11.32;100.00
69318;BME280;56457;52.190;4.440;2023-05-12T04:39:29;101926.38;;;11.37;100.00
69318;BME280;56457;52.190;4.440;2023-05-12T04:40:30;101918.44;;;11.32;100.00
69318;BME280;56457;52.190;4.440;2023-05-12T04:41:30;101927.19;;;11.36;100.00
69318;BME280;56457;52.190;4.440;2023-05-12T04:42:30;101920.19;;;11.33;100.00
69318;BME280;56457;52.190;4.440;2023-05-12T04:43:30;101924.56;;;11.36;100.00
69318;BME280;56457;52.190;4.440;2023-05-12T04:44:31;101931.63;;;11.40;100.00
69318;BME280;56457;52.190;4.440;2023-05-12T04:45:31;101930.75;;;11.43;100.00
69318;BME280;56457;52.190;4.440;2023-05-12T04:46:31;101926.38;;;11.42;100.00
69318;BME280;56457;52.190;4.440;2023-05-12T04:47:32;101925.50;;;11.41;100.00
69318;BME280;56457;52.190;4.440;2023-05-12T04:48:32;101934.25;;;11.42;100.00
69318;BME280;56457;52.190;4.440;2023-05-12T04:49:32;101936.91;;;11.46;100.00
69318;BME280;56457;52.190;4.440;2023-05-12T04:50:33;101928.16;;;11.47;100.00
69318;BME280;56457;52.190;4.440;2023-05-12T04:51:33;101930.78;;;11.44;100.00
69318;BME280;56457;52.190;4.440;2023-05-12T04:52:33;101930.75;;;11.43;100.00
69318;BME280;56457;52.190;4.440;2023-05-12T04:53:33;101929.88;;;11.42;100.00
69318;BME280;56457;52.190;4.440;2023-05-12T04:54:35;101929.94;;;11.53;100.00
69318;BME280;56457;52.190;4.440;2023-05-12T04:55:35;101936.06;;;11.52;100.00
69318;BME280;56457;52.190;4.440;2023-05-12T04:56:35;101929.06;;;11.51;100.00
69318;BME280;56457;52.190;4.440;2023-05-12T04:57:36;101929.09;;;11.57;100.00
69318;BME280;56457;52.190;4.440;2023-05-12T04:58:36;101923.88;;;11.65;100.00
69318;BME280;56457;52.190;4.440;2023-05-12T04:59:37;101931.72;;;11.55;100.00
69318;BME280;56457;52.190;4.440;2023-05-12T05:00:38;101931.69;;;11.51;100.00
69318;BME280;56457;52.190;4.440;2023-05-12T05:01:38;101934.31;;;11.51;100.00
69318;BME280;56457;52.190;4.440;2023-05-12T05:02:38;101933.50;;;11.66;100.00
69318;BME280;56457;52.190;4.440;2023-05-12T05:03:40;101929.09;;;11.60;100.00
69318;BME280;56457;52.190;4.440;2023-05-12T05:04:40;101931.75;;;11.62;100.00
69318;BME280;56457;52.190;4.440;2023-05-12T05:05:41;101932.59;;;11.56;100.00
69318;BME280;56457;52.190;4.440;2023-05-12T05:06:41;101934.34;;;11.58;100.00
69318;BME280;56457;52.190;4.440;2023-05-12T05:07:41;101939.63;;;11.58;100.00
69318;BME280;56457;52.190;4.440;2023-05-12T05:08:41;101938.75;;;11.58;100.00
69318;BME280;56457;52.190;4.440;2023-05-12T05:09:42;101934.34;;;11.60;100.00
69318;BME280;56457;52.190;4.440;2023-05-12T05:10:42;101935.22;;;11.60;100.00
69318;BME280;56457;52.190;4.440;2023-05-12T05:11:42;101941.41;;;11.63;100.00
69318;BME280;56457;52.190;4.440;2023-05-12T05:12:43;101944.91;;;11.63;100.00
69318;BME280;56457;52.190;4.440;2023-05-12T05:13:43;101946.66;;;11.63;100.00